Longzhou, China
Current Conditions -  °F | °C
As of 7:00 AM on Saturday 25 Oct 2014 (Local Time) from ZGNN Reporting Station
Haze Haze  
Wind Chill: 72°   Ceiling: 4000
Heat Index: 72°   Visibility: 2mi
Dew Point: 70°   Wind: 0mph
Humidity: 94%   Direction: NA
Pressure: 30"   Gusts: NA
Location:  22.37°N, 106.75°E
Report Text: ZGNN 242300Z 00000MPS 3200 BR BKN040 22/21 Q1016 NOSIG
Loading
Personal Weather Stations






























Interactive Weather Map
Tropical Storm Tracking
New forecast layout! Learn more

10-Day Weather Forecast

Advertisements
Track Severe Weather on mobile